createdAt,value
2022-08-29T00:00:24.673Z,19.76
2022-08-29T00:02:56.077Z,19.59
2022-08-29T00:05:29.702Z,19.76
2022-08-29T00:07:59.496Z,19.78
2022-08-29T00:10:30.254Z,19.38
2022-08-29T00:12:58.871Z,19.62
2022-08-29T00:15:27.666Z,19.55
2022-08-29T00:17:56.133Z,19.44
2022-08-29T00:20:34.314Z,19.48
2022-08-29T00:23:05.928Z,19.26
2022-08-29T00:25:34.477Z,19.36
2022-08-29T00:28:02.916Z,18.65
2022-08-29T00:30:31.844Z,19.04
2022-08-29T00:33:00.163Z,18.91
2022-08-29T00:35:34.238Z,18.83
2022-08-29T00:38:05.455Z,18.53
2022-08-29T00:40:51.607Z,18.72
2022-08-29T00:43:27.401Z,18.64
2022-08-29T00:46:35.383Z,18.66
2022-08-29T00:49:23.377Z,18.35
2022-08-29T00:51:52.946Z,18.55
2022-08-29T00:54:22.492Z,18.57
2022-08-29T00:56:52.136Z,18.58
2022-08-29T00:59:31.815Z,18.57
2022-08-29T01:02:00.259Z,18.27
2022-08-29T01:04:28.489Z,18.51
2022-08-29T01:06:57.042Z,18.53
2022-08-29T01:09:27.445Z,18.50
2022-08-29T01:12:14.526Z,18.44
2022-08-29T01:14:54.992Z,18.45
2022-08-29T01:17:46.066Z,18.48
2022-08-29T01:20:33.037Z,18.18
2022-08-29T01:23:42.365Z,17.97
2022-08-29T01:26:12.741Z,18.52
2022-08-29T01:28:46.298Z,18.56
2022-08-29T01:31:37.834Z,18.52
2022-08-29T01:34:10.060Z,18.57
2022-08-29T01:37:00.220Z,18.60
2022-08-29T01:39:34.138Z,18.64
2022-08-29T01:42:07.870Z,18.61
2022-08-29T01:44:37.285Z,18.60
2022-08-29T01:47:06.705Z,18.63
2022-08-29T01:49:40.721Z,18.64
2022-08-29T01:52:09.961Z,18.62
2022-08-29T01:54:38.781Z,18.61
2022-08-29T01:57:12.229Z,18.40
2022-08-29T01:59:42.716Z,18.51
2022-08-29T02:02:38.726Z,18.61
2022-08-29T02:05:09.956Z,18.72
2022-08-29T02:07:37.962Z,18.71
2022-08-29T02:10:08.009Z,18.54
2022-08-29T02:12:36.829Z,18.48
2022-08-29T02:15:06.347Z,18.70
2022-08-29T02:17:34.343Z,18.43
2022-08-29T02:20:04.496Z,18.61
2022-08-29T02:22:37.638Z,18.37
2022-08-29T02:25:28.217Z,18.72
2022-08-29T02:27:56.436Z,18.67
2022-08-29T02:30:25.796Z,18.43
2022-08-29T02:32:54.781Z,18.43
2022-08-29T02:35:23.068Z,18.61
2022-08-29T02:37:52.917Z,18.66
2022-08-29T02:40:28.172Z,18.67
2022-08-29T02:43:01.498Z,18.67
2022-08-29T02:45:30.103Z,18.68
2022-08-29T02:47:59.317Z,18.65
2022-08-29T02:50:27.944Z,18.32
2022-08-29T02:52:56.931Z,18.62
2022-08-29T02:55:26.006Z,18.07
2022-08-29T02:57:54.701Z,18.61
2022-08-29T03:00:26.994Z,18.61
2022-08-29T03:02:57.371Z,18.61
2022-08-29T03:05:29.906Z,18.58
2022-08-29T03:07:59.165Z,18.60
2022-08-29T03:10:27.632Z,18.31
2022-08-29T03:12:56.645Z,18.60
2022-08-29T03:15:25.433Z,18.34
2022-08-29T03:17:54.780Z,18.61
2022-08-29T03:20:24.977Z,18.61
2022-08-29T03:22:55.042Z,18.58
2022-08-29T03:25:23.872Z,18.59
2022-08-29T03:27:53.187Z,18.37
2022-08-29T03:30:21.840Z,18.65
2022-08-29T03:32:52.686Z,18.70
2022-08-29T03:35:22.720Z,18.53
2022-08-29T03:37:54.565Z,18.68
2022-08-29T03:40:24.365Z,18.65
2022-08-29T03:42:53.816Z,18.67
2022-08-29T03:45:22.395Z,18.63
2022-08-29T03:47:52.521Z,18.56
2022-08-29T03:50:21.699Z,18.52
2022-08-29T03:52:50.000Z,18.52
2022-08-29T03:55:19.781Z,18.46
2022-08-29T03:57:48.571Z,18.51
2022-08-29T04:00:19.155Z,18.26
2022-08-29T04:02:48.725Z,18.24
2022-08-29T04:05:18.752Z,18.46
2022-08-29T04:07:52.676Z,18.46
2022-08-29T04:10:32.235Z,18.45
2022-08-29T04:13:01.718Z,18.50
2022-08-29T04:15:32.671Z,18.33
2022-08-29T04:18:06.899Z,18.62
2022-08-29T04:20:41.927Z,18.56
2022-08-29T04:23:12.826Z,18.69
2022-08-29T04:25:42.993Z,18.65
2022-08-29T04:28:14.245Z,18.72
2022-08-29T04:30:51.346Z,18.77
2022-08-29T04:33:25.021Z,18.75
2022-08-29T04:35:53.507Z,18.77
2022-08-29T04:38:21.799Z,18.84
2022-08-29T04:40:50.322Z,18.83
2022-08-29T04:43:18.245Z,18.89
2022-08-29T04:45:46.730Z,18.91
2022-08-29T04:48:14.807Z,18.69
2022-08-29T04:50:43.030Z,18.95
2022-08-29T04:53:11.331Z,19.02
2022-08-29T04:55:40.238Z,19.10
2022-08-29T04:58:14.075Z,19.17
2022-08-29T05:00:42.262Z,19.21
2022-08-29T05:03:11.961Z,19.27
2022-08-29T05:05:41.158Z,19.26
2022-08-29T05:08:09.512Z,19.40
2022-08-29T05:10:37.964Z,19.41
2022-08-29T05:13:06.633Z,19.06
2022-08-29T05:15:39.040Z,19.47
2022-08-29T05:18:08.072Z,19.58
2022-08-29T05:20:39.086Z,19.63
2022-08-29T05:23:07.809Z,19.74
2022-08-29T05:25:36.047Z,19.53
2022-08-29T05:28:07.356Z,20.00
2022-08-29T05:30:37.393Z,20.05
2022-08-29T05:33:07.058Z,20.12
2022-08-29T05:35:35.946Z,19.92
2022-08-29T05:38:09.048Z,20.19
2022-08-29T05:40:38.956Z,20.32
2022-08-29T05:43:08.679Z,19.95
2022-08-29T05:45:40.381Z,20.13
2022-08-29T05:48:10.379Z,20.30
2022-08-29T05:50:45.169Z,20.53
2022-08-29T05:53:16.604Z,19.90
2022-08-29T05:55:45.424Z,20.23
2022-08-29T05:58:13.611Z,20.42
2022-08-29T06:00:46.540Z,20.40
2022-08-29T06:03:15.599Z,20.41
2022-08-29T06:05:50.689Z,20.43
2022-08-29T06:08:20.201Z,20.31
2022-08-29T06:10:49.176Z,20.43
2022-08-29T06:13:17.554Z,20.48
2022-08-29T06:15:46.248Z,20.18
2022-08-29T06:18:14.745Z,20.11
2022-08-29T06:20:43.216Z,20.29
2022-08-29T06:23:11.305Z,20.34
2022-08-29T06:25:40.532Z,20.18
2022-08-29T06:28:09.322Z,20.14
2022-08-29T06:30:37.384Z,20.15
2022-08-29T06:33:05.619Z,19.76
2022-08-29T06:35:33.799Z,19.78
2022-08-29T06:38:01.899Z,19.85
2022-08-29T06:40:30.280Z,19.86
2022-08-29T06:42:58.995Z,19.86
2022-08-29T06:45:27.682Z,19.92
2022-08-29T06:47:55.917Z,20.05
2022-08-29T06:50:26.748Z,19.43
2022-08-29T06:52:55.744Z,20.11
2022-08-29T06:55:24.755Z,20.20
2022-08-29T06:57:56.104Z,20.31
2022-08-29T07:00:24.199Z,20.40
2022-08-29T07:02:53.586Z,20.41
2022-08-29T07:05:23.747Z,20.38
2022-08-29T07:07:52.797Z,20.45
2022-08-29T07:10:22.846Z,20.55
2022-08-29T07:12:53.348Z,20.65
2022-08-29T07:15:24.880Z,20.77
2022-08-29T07:17:56.586Z,20.65
2022-08-29T07:20:28.454Z,20.93
2022-08-29T07:22:57.507Z,20.59
2022-08-29T07:25:27.873Z,20.56
2022-08-29T07:27:56.354Z,20.53
2022-08-29T07:30:25.165Z,20.68
2022-08-29T07:32:53.537Z,20.39
2022-08-29T07:35:30.106Z,20.48
2022-08-29T07:38:01.467Z,20.24
2022-08-29T07:40:30.726Z,20.18
2022-08-29T07:42:58.975Z,19.64
2022-08-29T07:45:27.261Z,19.38
2022-08-29T07:47:55.506Z,19.25
2022-08-29T07:50:24.025Z,19.20
2022-08-29T07:52:52.663Z,19.14
2022-08-29T07:55:22.346Z,19.09
2022-08-29T07:57:53.245Z,19.16
2022-08-29T08:00:21.739Z,19.00
2022-08-29T08:02:50.004Z,18.28
2022-08-29T08:05:18.325Z,18.86
2022-08-29T08:07:47.401Z,18.79
2022-08-29T08:10:20.697Z,19.01
2022-08-29T08:12:51.717Z,19.10
2022-08-29T08:15:22.276Z,19.08
2022-08-29T08:17:50.440Z,18.89
2022-08-29T08:20:18.682Z,19.03
2022-08-29T08:22:48.277Z,19.05
2022-08-29T08:25:16.721Z,19.09
2022-08-29T08:27:45.008Z,18.78
2022-08-29T08:30:14.153Z,19.07
2022-08-29T08:32:46.382Z,19.17
2022-08-29T08:35:16.537Z,18.39
2022-08-29T08:37:44.770Z,19.13
2022-08-29T08:40:30.600Z,19.22
2022-08-29T08:43:02.975Z,19.37
2022-08-29T08:45:40.084Z,19.38
2022-08-29T08:48:22.940Z,19.26
2022-08-29T08:51:03.512Z,19.19
2022-08-29T08:53:47.100Z,18.56
2022-08-29T08:56:47.404Z,18.83
2022-08-29T08:59:33.350Z,18.88
2022-08-29T09:02:23.430Z,18.65
2022-08-29T09:05:06.617Z,18.93
2022-08-29T09:08:08.456Z,18.71
2022-08-29T09:11:04.456Z,19.16
2022-08-29T09:14:13.079Z,19.27
2022-08-29T09:16:49.666Z,19.21
2022-08-29T09:19:18.158Z,19.78
2022-08-29T09:22:06.871Z,19.87
2022-08-29T09:24:50.200Z,20.15
2022-08-29T09:27:26.556Z,20.41
2022-08-29T09:30:08.458Z,20.67
2022-08-29T09:33:03.554Z,20.59
2022-08-29T09:36:02.548Z,21.00
2022-08-29T09:38:31.591Z,21.25
2022-08-29T09:41:04.371Z,20.75
2022-08-29T09:43:46.998Z,21.37
2022-08-29T09:46:25.245Z,21.39
2022-08-29T09:49:17.842Z,21.62
2022-08-29T09:51:50.010Z,21.83
2022-08-29T09:54:28.152Z,21.92
2022-08-29T09:57:14.203Z,22.34
2022-08-29T10:00:15.895Z,22.66
2022-08-29T10:02:56.091Z,22.29
2022-08-29T10:05:41.651Z,22.28
2022-08-29T10:08:34.237Z,22.28
2022-08-29T10:11:17.703Z,21.79
2022-08-29T10:14:01.309Z,21.62
2022-08-29T10:16:35.760Z,21.44
2022-08-29T10:19:34.322Z,21.08
2022-08-29T10:22:42.087Z,21.17
2022-08-29T10:25:41.446Z,21.58
2022-08-29T10:28:25.065Z,21.22
2022-08-29T10:31:46.301Z,21.94
2022-08-29T10:34:56.151Z,22.28
2022-08-29T10:37:53.914Z,22.57
2022-08-29T10:40:43.926Z,23.15
2022-08-29T10:43:44.519Z,23.39
2022-08-29T10:46:12.973Z,23.17
2022-08-29T10:49:20.159Z,23.11
2022-08-29T10:52:36.932Z,22.87
2022-08-29T10:55:35.022Z,23.05
2022-08-29T10:58:30.663Z,23.44
2022-08-29T11:01:13.169Z,23.37
2022-08-29T11:04:06.683Z,22.98
2022-08-29T11:06:55.664Z,23.87
2022-08-29T11:09:50.751Z,23.31
2022-08-29T11:12:34.443Z,23.12
2022-08-29T11:15:31.968Z,22.53
2022-08-29T11:18:22.586Z,22.69
2022-08-29T11:21:04.299Z,22.63
2022-08-29T11:23:48.901Z,22.35
2022-08-29T11:26:23.247Z,22.80
2022-08-29T11:29:12.778Z,23.00
2022-08-29T11:32:16.340Z,22.69
2022-08-29T11:35:09.773Z,22.73
2022-08-29T11:38:21.634Z,22.79
2022-08-29T11:44:11.533Z,23.61
2022-08-29T11:46:53.455Z,23.70
2022-08-29T11:49:40.225Z,24.39
2022-08-29T11:52:11.609Z,24.27
2022-08-29T11:54:40.441Z,24.48
2022-08-29T11:57:11.300Z,24.25
2022-08-29T11:59:57.071Z,24.15
2022-08-29T12:02:30.952Z,24.28
2022-08-29T12:05:10.275Z,24.38
2022-08-29T12:08:26.226Z,23.89
2022-08-29T12:10:56.599Z,23.76
2022-08-29T12:13:59.490Z,23.78
2022-08-29T12:16:50.664Z,23.13
2022-08-29T12:19:48.549Z,23.77
2022-08-29T12:23:01.086Z,23.34
2022-08-29T12:26:04.113Z,23.58
2022-08-29T12:28:58.635Z,24.07
2022-08-29T12:32:22.989Z,24.49
2022-08-29T12:35:07.836Z,24.81
2022-08-29T12:38:04.351Z,24.44
2022-08-29T12:41:01.618Z,24.12
2022-08-29T12:43:42.893Z,24.10
2022-08-29T12:46:29.010Z,23.51
2022-08-29T12:49:30.952Z,23.85
2022-08-29T12:52:04.849Z,24.32
2022-08-29T12:54:42.066Z,24.75
2022-08-29T12:57:29.246Z,25.20
2022-08-29T12:59:58.532Z,25.61
2022-08-29T13:02:36.587Z,25.33
2022-08-29T13:05:26.893Z,24.94
2022-08-29T13:08:11.087Z,25.41
2022-08-29T13:10:55.658Z,25.53
2022-08-29T13:13:26.678Z,25.53
2022-08-29T13:16:01.703Z,25.27
2022-08-29T13:18:40.474Z,24.55
2022-08-29T13:21:27.449Z,24.85
2022-08-29T13:24:11.577Z,25.25
2022-08-29T13:27:04.646Z,25.16
2022-08-29T13:29:40.743Z,25.28
2022-08-29T13:32:29.065Z,25.09
2022-08-29T13:35:34.017Z,25.54
2022-08-29T13:38:24.193Z,25.34
2022-08-29T13:40:57.235Z,25.29
2022-08-29T13:43:49.026Z,25.06
2022-08-29T13:46:26.698Z,25.35
2022-08-29T13:49:04.903Z,25.26
2022-08-29T13:51:34.119Z,25.61
2022-08-29T13:54:02.249Z,25.60
2022-08-29T13:56:33.686Z,26.07
2022-08-29T13:59:02.871Z,26.12
2022-08-29T14:02:07.911Z,25.61
2022-08-29T14:04:37.598Z,25.20
2022-08-29T14:07:07.905Z,24.78
2022-08-29T14:09:40.313Z,24.69
2022-08-29T14:12:09.464Z,25.13
2022-08-29T14:14:37.602Z,25.46
2022-08-29T14:17:05.894Z,25.56
2022-08-29T14:19:34.543Z,25.77
2022-08-29T14:22:03.655Z,25.56
2022-08-29T14:24:37.820Z,26.38
2022-08-29T14:27:06.308Z,26.27
2022-08-29T14:29:35.692Z,26.12
2022-08-29T14:32:05.068Z,25.71
2022-08-29T14:34:33.435Z,25.86
2022-08-29T14:37:02.433Z,26.00
2022-08-29T14:39:30.814Z,25.72
2022-08-29T14:41:58.906Z,24.84
2022-08-29T14:44:27.498Z,25.08
2022-08-29T14:46:56.017Z,25.08
2022-08-29T14:49:24.424Z,25.48
2022-08-29T14:51:52.668Z,25.60
2022-08-29T14:54:21.022Z,25.34
2022-08-29T14:56:50.375Z,25.37
2022-08-29T14:59:22.081Z,25.35
2022-08-29T15:01:54.298Z,25.57
2022-08-29T15:04:36.445Z,25.75
2022-08-29T15:07:13.623Z,25.46
2022-08-29T15:09:44.444Z,25.58
2022-08-29T15:12:15.942Z,25.39
2022-08-29T15:14:45.970Z,25.59
2022-08-29T15:17:14.609Z,25.19
2022-08-29T15:22:31.468Z,24.01
2022-08-29T15:24:59.717Z,24.34
2022-08-29T15:27:27.952Z,24.46
2022-08-29T15:29:58.130Z,24.30
2022-08-29T15:32:26.519Z,24.43
2022-08-29T15:34:54.753Z,24.42
2022-08-29T15:37:23.480Z,24.42
2022-08-29T15:39:54.617Z,24.38
2022-08-29T15:42:28.874Z,23.84
2022-08-29T15:45:08.390Z,23.47
2022-08-29T15:47:37.854Z,24.08
2022-08-29T15:50:08.293Z,23.95
2022-08-29T15:52:37.474Z,23.95
2022-08-29T15:55:07.538Z,23.71
2022-08-29T15:57:39.554Z,23.72
2022-08-29T16:00:29.570Z,23.45
2022-08-29T16:03:02.335Z,23.36
2022-08-29T16:05:32.316Z,23.22
2022-08-29T16:08:01.161Z,23.22
2022-08-29T16:10:31.076Z,23.17
2022-08-29T16:13:00.589Z,23.36
2022-08-29T16:15:31.349Z,23.16
2022-08-29T16:18:00.616Z,23.26
2022-08-29T16:20:31.304Z,22.81
2022-08-29T16:23:00.768Z,23.02
2022-08-29T16:25:32.027Z,22.50
2022-08-29T16:28:01.101Z,22.65
2022-08-29T16:30:30.218Z,22.55
2022-08-29T16:32:58.354Z,22.47
2022-08-29T16:35:26.850Z,22.53
2022-08-29T16:38:02.235Z,22.28
2022-08-29T16:40:32.811Z,22.15
2022-08-29T16:43:03.660Z,22.35
2022-08-29T16:45:33.000Z,22.02
2022-08-29T16:48:01.524Z,22.12
2022-08-29T16:50:32.972Z,21.83
2022-08-29T16:53:03.350Z,21.83
2022-08-29T16:55:31.959Z,21.92
2022-08-29T16:58:32.579Z,21.79
2022-08-29T17:01:01.184Z,21.74
2022-08-29T17:03:29.460Z,21.20
2022-08-29T17:05:57.918Z,21.29
2022-08-29T17:08:26.252Z,21.12
2022-08-29T17:10:55.434Z,20.85
2022-08-29T17:13:23.800Z,20.42
2022-08-29T17:15:52.226Z,20.28
2022-08-29T17:18:20.861Z,20.15
2022-08-29T17:20:49.276Z,20.00
2022-08-29T17:23:17.849Z,20.16
2022-08-29T17:25:46.167Z,19.85
2022-08-29T17:28:18.206Z,19.84
2022-08-29T17:30:49.257Z,19.76
2022-08-29T17:33:19.341Z,19.62
2022-08-29T17:35:48.844Z,19.40
2022-08-29T17:38:18.368Z,19.45
2022-08-29T17:40:47.762Z,19.27
2022-08-29T17:43:21.482Z,18.90
2022-08-29T17:45:49.810Z,19.10
2022-08-29T17:48:19.816Z,18.73
2022-08-29T17:50:50.056Z,18.89
2022-08-29T17:53:20.337Z,18.77
2022-08-29T17:55:51.228Z,18.68
2022-08-29T17:58:21.756Z,18.29
2022-08-29T18:00:50.719Z,18.52
2022-08-29T18:03:19.764Z,18.25
2022-08-29T18:05:48.704Z,18.35
2022-08-29T18:08:17.106Z,18.34
2022-08-29T18:10:45.699Z,17.96
2022-08-29T18:13:16.596Z,18.22
2022-08-29T18:15:46.902Z,18.17
2022-08-29T18:18:19.036Z,17.96
2022-08-29T18:20:47.342Z,17.92
2022-08-29T18:23:15.738Z,17.66
2022-08-29T18:25:44.152Z,17.50
2022-08-29T18:28:12.555Z,17.57
2022-08-29T18:30:41.116Z,17.50
2022-08-29T18:33:10.141Z,17.44
2022-08-29T18:35:38.970Z,17.36
2022-08-29T18:38:08.154Z,17.26
2022-08-29T18:40:39.556Z,17.24
2022-08-29T18:43:10.060Z,17.15
2022-08-29T18:45:41.452Z,17.04
2022-08-29T18:48:10.176Z,16.69
2022-08-29T18:50:38.729Z,16.82
2022-08-29T18:53:13.828Z,16.78
2022-08-29T18:55:52.175Z,16.68
2022-08-29T18:58:28.733Z,16.41
2022-08-29T19:01:00.051Z,16.61
2022-08-29T19:03:28.863Z,16.51
2022-08-29T19:05:57.070Z,16.38
2022-08-29T19:08:30.690Z,16.13
2022-08-29T19:11:00.696Z,16.30
2022-08-29T19:13:30.667Z,16.17
2022-08-29T19:16:03.695Z,16.13
2022-08-29T19:18:33.395Z,16.04
2022-08-29T19:21:10.174Z,15.44
2022-08-29T19:23:45.765Z,15.80
2022-08-29T19:26:19.427Z,15.44
2022-08-29T19:28:47.984Z,15.45
2022-08-29T19:31:18.394Z,15.44
2022-08-29T19:33:47.859Z,15.51
2022-08-29T19:36:17.743Z,15.45
2022-08-29T19:38:47.335Z,15.40
2022-08-29T19:41:16.574Z,15.35
2022-08-29T19:43:45.374Z,15.25
2022-08-29T19:46:20.919Z,15.31
2022-08-29T19:48:51.193Z,15.17
2022-08-29T19:51:24.721Z,15.16
2022-08-29T19:53:57.434Z,15.11
2022-08-29T19:56:27.348Z,15.06
2022-08-29T19:58:58.137Z,15.04
2022-08-29T20:01:27.264Z,14.69
2022-08-29T20:03:55.719Z,14.91
2022-08-29T20:06:24.328Z,14.74
2022-08-29T20:08:52.646Z,14.75
2022-08-29T20:11:25.659Z,14.50
2022-08-29T20:13:58.871Z,14.71
2022-08-29T20:16:33.572Z,14.73
2022-08-29T20:19:07.489Z,14.65
2022-08-29T20:21:36.816Z,14.67
2022-08-29T20:24:05.594Z,14.68
2022-08-29T20:26:36.718Z,14.46
2022-08-29T20:29:09.810Z,14.67
2022-08-29T20:31:39.828Z,14.36
2022-08-29T20:34:08.392Z,14.35
2022-08-29T20:36:55.972Z,14.62
2022-08-29T20:39:26.392Z,14.37
2022-08-29T20:41:58.010Z,14.67
2022-08-29T20:44:33.488Z,14.64
2022-08-29T20:47:02.179Z,14.58
2022-08-29T20:49:30.516Z,14.63
2022-08-29T20:51:58.841Z,13.94
2022-08-29T20:54:28.067Z,14.56
2022-08-29T20:56:56.418Z,14.48
2022-08-29T20:59:26.878Z,14.34
2022-08-29T21:01:55.916Z,14.31
2022-08-29T21:04:42.909Z,14.21
2022-08-29T21:07:15.180Z,13.95
2022-08-29T21:09:46.336Z,13.91
2022-08-29T21:12:15.408Z,14.14
2022-08-29T21:14:43.943Z,14.10
2022-08-29T21:17:13.837Z,13.77
2022-08-29T21:19:43.389Z,13.67
2022-08-29T21:22:15.773Z,13.88
2022-08-29T21:24:44.176Z,13.82
2022-08-29T21:27:12.259Z,13.81
2022-08-29T21:29:44.027Z,13.53
2022-08-29T21:32:12.163Z,13.74
2022-08-29T21:34:40.593Z,13.73
2022-08-29T21:37:08.829Z,13.74
2022-08-29T21:39:37.024Z,13.74
2022-08-29T21:42:05.700Z,13.76
2022-08-29T21:44:34.145Z,13.76
2022-08-29T21:47:02.766Z,13.72
2022-08-29T21:49:31.011Z,13.71
2022-08-29T21:52:00.252Z,13.61
2022-08-29T21:54:28.379Z,13.66
2022-08-29T21:56:56.412Z,13.36
2022-08-29T21:59:28.004Z,13.61
2022-08-29T22:01:56.858Z,13.61
2022-08-29T22:04:28.869Z,13.64
2022-08-29T22:06:59.258Z,13.58
2022-08-29T22:09:28.925Z,13.49
2022-08-29T22:11:57.530Z,13.62
2022-08-29T22:14:46.852Z,13.58
2022-08-29T22:17:16.663Z,13.33
2022-08-29T22:19:44.981Z,13.58
2022-08-29T22:22:13.355Z,13.52
2022-08-29T22:24:41.633Z,13.39
2022-08-29T22:27:09.718Z,13.61
2022-08-29T22:29:38.866Z,13.53
2022-08-29T22:32:07.451Z,13.58
2022-08-29T22:34:35.584Z,13.57
2022-08-29T22:37:03.869Z,13.57
2022-08-29T22:39:32.148Z,13.57
2022-08-29T22:42:00.275Z,13.55
2022-08-29T22:45:02.665Z,13.55
2022-08-29T22:47:18.291Z,13.29
2022-08-29T22:49:46.701Z,13.40
2022-08-29T22:52:14.881Z,13.56
2022-08-29T22:54:43.359Z,13.55
2022-08-29T22:57:16.863Z,13.58
2022-08-29T22:59:46.963Z,13.27
2022-08-29T23:02:16.156Z,13.61
2022-08-29T23:04:44.795Z,13.42
2022-08-29T23:07:13.510Z,13.69
2022-08-29T23:09:43.479Z,13.66
2022-08-29T23:12:13.743Z,13.43
2022-08-29T23:14:46.645Z,13.63
2022-08-29T23:17:18.190Z,13.64
2022-08-29T23:19:46.758Z,13.54
2022-08-29T23:22:18.152Z,13.32
2022-08-29T23:24:55.735Z,13.54
2022-08-29T23:27:32.895Z,13.54
2022-08-29T23:30:01.633Z,13.50
2022-08-29T23:32:30.383Z,13.50
2022-08-29T23:34:58.380Z,13.23
2022-08-29T23:37:27.068Z,13.49
2022-08-29T23:39:55.707Z,13.44
2022-08-29T23:42:24.248Z,13.37
2022-08-29T23:44:52.419Z,13.04
2022-08-29T23:47:20.562Z,13.21
2022-08-29T23:49:48.608Z,12.93
2022-08-29T23:52:16.950Z,13.14
2022-08-29T23:54:45.035Z,12.80
2022-08-29T23:57:13.323Z,12.95
2022-08-29T23:59:59.790Z,12.72
